Airfield :
LOGIN :

Register | Disclaimer

   EN    FR    IT 

 










Legend :    VFR   Marginal VFR   IFR   Intensive IFR   Very Intensive IFR
Visi :
Ceiling :
>= 8 km
>= 3000ft
5 to 8 km
1000 to 3000 ft
1500m to 5 km
500 to 1000 ft
800 to 1500m
200 to 500 ft
< 800m
< 200 ft
Symbols :   Thunderstorms  Fog  Heavy snow  Heavy precipitations  Wind > 20 kt
SIGMETs :     Misc.  Thunderstorms  Icing  Turbulence  Mountain Waves  Volcanic Ashes






- Airport Elevation : 622 ft
- IATA code : BRS


EGGD - Bristol Int.

CURRENT METAR :
  • 260450Z AUTO 17006KT 9999 SCT004 BKN009 OVC035 12/12 Q1009

EXPIRED METARs :
  • 260420Z AUTO 13008KT 9999 BKN004 OVC008 12/12 Q1009
  • 260350Z AUTO 13008KT 9999 -RA BKN004 OVC009 11/11 Q1009
  • 260320Z AUTO 12008KT 9999 OVC004 11/11 Q1009
  • 260250Z AUTO 12008KT 9999 -RA BKN003 OVC007 11/11 Q1009
  • 260220Z AUTO 11009KT 8000 BKN003 OVC012 11/11 Q1010 RERA
  • 260150Z AUTO 11011KT 4800 RA SCT002/// BKN012/// BKN016/// //////TCU 11/11 Q1010 REDZ
  • 260120Z AUTO 11008KT 5000 -RADZ BKN003 BKN033 11/11 Q1010 RERA REDZ
  • 260050Z AUTO 11008KT 6000 -RA SCT004/// BKN031/// OVC048/// //////TCU 11/11 Q1011
  • 260020Z AUTO 10008KT 6000 -RA FEW005/// SCT023/// //////TCU 11/11 Q1011
  • 252350Z AUTO 10009KT 8000 -RA BKN049/// //////TCU 11/11 Q1012

TAF AMD TAF EGGD
Valid from the 26 at 01:00 until the 27 at 00:00 UTC


260156Z 2601/2624 14009KT 9999 FEW003 BKN010
TEMPO 2601/2606 4000 RA BKN003
PROB30
TEMPO 2601/2606 +RA
BECMG 2606/2609 26013KT SCT025
TEMPO 2609/2621 26016G26KT 6000 SHRA
PROB30
TEMPO 2610/2620 3000 +SHRA +TSRA BKN010 BKN020CB
ATIS : +44 1275 473 666



MET'MAP, your aeronautical weather chart ! - Copyright ORBIFLY December 2007 - Disclaimer

ORBIFLY MET'MAP TEAM :

Programming & Development : Alexandra Zaïnal
Original concept : Baudouin d'Aumeries
Technical & hardware support : Manuel Goepfert
Assistance : Marc-Olivier Méhu




SOURCES & CREDITS :

   NOAA